sensor_id;sensor_type;location;lat;lon;timestamp;pressure;altitude;pressure_sealevel;temperature
82297;BMP280;71899;51.992;8.648;2023-07-31T00:01:51;99619.03;;;15.98
82297;BMP280;71899;51.992;8.648;2023-07-31T00:04:16;99622.94;;;16.04
82297;BMP280;71899;51.992;8.648;2023-07-31T00:06:41;99616.28;;;16.27
82297;BMP280;71899;51.992;8.648;2023-07-31T00:09:07;99625.81;;;16.10
82297;BMP280;71899;51.992;8.648;2023-07-31T00:11:32;99621.38;;;16.38
82297;BMP280;71899;51.992;8.648;2023-07-31T00:13:57;99619.50;;;16.21
82297;BMP280;71899;51.992;8.648;2023-07-31T00:16:23;99617.53;;;16.32
82297;BMP280;71899;51.992;8.648;2023-07-31T00:18:48;99606.81;;;16.34
82297;BMP280;71899;51.992;8.648;2023-07-31T00:21:13;99609.91;;;16.57
82297;BMP280;71899;51.992;8.648;2023-07-31T00:23:39;99600.06;;;16.49
82297;BMP280;71899;51.992;8.648;2023-07-31T00:26:04;99603.28;;;16.43
82297;BMP280;71899;51.992;8.648;2023-07-31T00:28:29;99603.09;;;16.27
82297;BMP280;71899;51.992;8.648;2023-07-31T00:30:55;99590.09;;;16.43
82297;BMP280;71899;51.992;8.648;2023-07-31T00:33:24;99586.78;;;16.14
82297;BMP280;71899;51.992;8.648;2023-07-31T00:35:50;99589.13;;;16.17
82297;BMP280;71899;51.992;8.648;2023-07-31T00:38:15;99584.63;;;16.00
82297;BMP280;71899;51.992;8.648;2023-07-31T00:40:40;99585.84;;;16.05
82297;BMP280;71899;51.992;8.648;2023-07-31T00:43:05;99582.41;;;16.05
82297;BMP280;71899;51.992;8.648;2023-07-31T00:45:32;99581.75;;;15.93
82297;BMP280;71899;51.992;8.648;2023-07-31T00:47:58;99584.75;;;16.08
82297;BMP280;71899;51.992;8.648;2023-07-31T00:50:24;99574.78;;;16.02
82297;BMP280;71899;51.992;8.648;2023-07-31T00:52:50;99576.31;;;16.04
82297;BMP280;71899;51.992;8.648;2023-07-31T00:55:16;99572.44;;;15.99
82297;BMP280;71899;51.992;8.648;2023-07-31T00:57:44;99565.50;;;15.98
82297;BMP280;71899;51.992;8.648;2023-07-31T01:00:11;99571.13;;;16.12
82297;BMP280;71899;51.992;8.648;2023-07-31T01:02:36;99559.66;;;16.04
82297;BMP280;71899;51.992;8.648;2023-07-31T01:05:03;99565.03;;;16.12
82297;BMP280;71899;51.992;8.648;2023-07-31T01:07:40;99568.44;;;16.22
82297;BMP280;71899;51.992;8.648;2023-07-31T01:10:19;99566.19;;;16.00
82297;BMP280;71899;51.992;8.648;2023-07-31T01:12:45;99561.78;;;16.18
82297;BMP280;71899;51.992;8.648;2023-07-31T01:15:11;99557.47;;;16.26
82297;BMP280;71899;51.992;8.648;2023-07-31T01:17:38;99567.50;;;16.13
82297;BMP280;71899;51.992;8.648;2023-07-31T01:20:08;99560.91;;;16.27
82297;BMP280;71899;51.992;8.648;2023-07-31T01:28:44;99561.75;;;16.00
82297;BMP280;71899;51.992;8.648;2023-07-31T01:31:16;99554.03;;;15.89
82297;BMP280;71899;51.992;8.648;2023-07-31T01:33:42;99551.69;;;15.86
82297;BMP280;71899;51.992;8.648;2023-07-31T01:36:08;99554.84;;;15.62
82297;BMP280;71899;51.992;8.648;2023-07-31T01:38:33;99557.28;;;15.73
82297;BMP280;71899;51.992;8.648;2023-07-31T01:40:58;99552.75;;;15.56
82297;BMP280;71899;51.992;8.648;2023-07-31T01:43:24;99552.94;;;15.35
82297;BMP280;71899;51.992;8.648;2023-07-31T01:45:50;99549.03;;;15.49
82297;BMP280;71899;51.992;8.648;2023-07-31T01:48:16;99557.13;;;15.19
82297;BMP280;71899;51.992;8.648;2023-07-31T01:50:42;99562.13;;;15.03
82297;BMP280;71899;51.992;8.648;2023-07-31T01:53:07;99561.72;;;14.98
82297;BMP280;71899;51.992;8.648;2023-07-31T01:55:32;99553.69;;;14.89
82297;BMP280;71899;51.992;8.648;2023-07-31T01:57:58;99555.47;;;14.99
82297;BMP280;71899;51.992;8.648;2023-07-31T02:00:23;99559.19;;;15.06
82297;BMP280;71899;51.992;8.648;2023-07-31T02:02:48;99549.66;;;15.05
82297;BMP280;71899;51.992;8.648;2023-07-31T02:05:14;99544.66;;;15.11
82297;BMP280;71899;51.992;8.648;2023-07-31T02:07:39;99549.25;;;15.00
82297;BMP280;71899;51.992;8.648;2023-07-31T02:10:05;99543.41;;;15.06
82297;BMP280;71899;51.992;8.648;2023-07-31T02:12:30;99542.75;;;14.94
82297;BMP280;71899;51.992;8.648;2023-07-31T02:14:57;99539.84;;;14.97
82297;BMP280;71899;51.992;8.648;2023-07-31T02:17:22;99541.22;;;14.92
82297;BMP280;71899;51.992;8.648;2023-07-31T02:19:48;99540.81;;;14.86
82297;BMP280;71899;51.992;8.648;2023-07-31T02:22:13;99542.34;;;14.79
82297;BMP280;71899;51.992;8.648;2023-07-31T02:24:39;99536.94;;;14.71
82297;BMP280;71899;51.992;8.648;2023-07-31T02:27:04;99534.59;;;14.59
82297;BMP280;71899;51.992;8.648;2023-07-31T02:29:29;99532.31;;;15.02
82297;BMP280;71899;51.992;8.648;2023-07-31T02:31:55;99526.72;;;15.44
82297;BMP280;71899;51.992;8.648;2023-07-31T02:34:20;99522.53;;;15.41
82297;BMP280;71899;51.992;8.648;2023-07-31T02:36:45;99518.25;;;15.50
82297;BMP280;71899;51.992;8.648;2023-07-31T02:39:11;99528.09;;;15.38
82297;BMP280;71899;51.992;8.648;2023-07-31T02:41:36;99517.13;;;15.52
82297;BMP280;71899;51.992;8.648;2023-07-31T02:44:01;99520.34;;;15.36
82297;BMP280;71899;51.992;8.648;2023-07-31T02:46:26;99522.91;;;15.19
82297;BMP280;71899;51.992;8.648;2023-07-31T02:48:52;99527.72;;;15.23
82297;BMP280;71899;51.992;8.648;2023-07-31T02:51:17;99520.56;;;15.06
82297;BMP280;71899;51.992;8.648;2023-07-31T02:53:42;99512.25;;;14.92
82297;BMP280;71899;51.992;8.648;2023-07-31T02:56:08;99516.66;;;15.10
82297;BMP280;71899;51.992;8.648;2023-07-31T02:58:33;99516.38;;;15.13
82297;BMP280;71899;51.992;8.648;2023-07-31T03:00:58;99517.91;;;15.06
82297;BMP280;71899;51.992;8.648;2023-07-31T03:03:24;99505.16;;;15.21
82297;BMP280;71899;51.992;8.648;2023-07-31T03:05:49;99513.16;;;15.29
82297;BMP280;71899;51.992;8.648;2023-07-31T03:08:15;99498.13;;;15.12
82297;BMP280;71899;51.992;8.648;2023-07-31T03:10:40;99503.78;;;15.07
82297;BMP280;71899;51.992;8.648;2023-07-31T03:13:06;99508.19;;;15.16
82297;BMP280;71899;51.992;8.648;2023-07-31T03:15:31;99507.50;;;15.24
82297;BMP280;71899;51.992;8.648;2023-07-31T03:17:56;99503.47;;;15.29
82297;BMP280;71899;51.992;8.648;2023-07-31T03:20:22;99505.94;;;15.41
82297;BMP280;71899;51.992;8.648;2023-07-31T03:22:47;99504.50;;;15.46
82297;BMP280;71899;51.992;8.648;2023-07-31T03:25:12;99510.59;;;15.56
82297;BMP280;71899;51.992;8.648;2023-07-31T03:27:39;99503.41;;;15.49
82297;BMP280;71899;51.992;8.648;2023-07-31T03:30:05;99511.47;;;15.47
82297;BMP280;71899;51.992;8.648;2023-07-31T03:32:30;99497.56;;;15.45
82297;BMP280;71899;51.992;8.648;2023-07-31T03:34:56;99505.84;;;15.69
82297;BMP280;71899;51.992;8.648;2023-07-31T03:37:21;99494.53;;;15.86
82297;BMP280;71899;51.992;8.648;2023-07-31T03:39:46;99506.00;;;15.68
82297;BMP280;71899;51.992;8.648;2023-07-31T03:42:12;99495.56;;;15.76
82297;BMP280;71899;51.992;8.648;2023-07-31T03:44:37;99493.59;;;15.78
82297;BMP280;71899;51.992;8.648;2023-07-31T03:47:04;99503.22;;;15.97
82297;BMP280;71899;51.992;8.648;2023-07-31T03:49:30;99496.03;;;15.89
82297;BMP280;71899;51.992;8.648;2023-07-31T03:51:56;99496.97;;;15.98
82297;BMP280;71899;51.992;8.648;2023-07-31T03:54:22;99484.38;;;15.92
82297;BMP280;71899;51.992;8.648;2023-07-31T03:56:47;99497.25;;;16.22
82297;BMP280;71899;51.992;8.648;2023-07-31T03:59:12;99493.38;;;16.16
82297;BMP280;71899;51.992;8.648;2023-07-31T04:01:38;99502.28;;;16.33
82297;BMP280;71899;51.992;8.648;2023-07-31T04:04:03;99495.50;;;16.30
82297;BMP280;71899;51.992;8.648;2023-07-31T04:06:28;99495.56;;;16.38
82297;BMP280;71899;51.992;8.648;2023-07-31T04:08:54;99492.81;;;16.40
82297;BMP280;71899;51.992;8.648;2023-07-31T04:11:19;99495.25;;;16.24
82297;BMP280;71899;51.992;8.648;2023-07-31T04:13:44;99506.94;;;16.21
82297;BMP280;71899;51.992;8.648;2023-07-31T04:16:09;99501.56;;;16.13
82297;BMP280;71899;51.992;8.648;2023-07-31T04:18:35;99510.22;;;16.06
82297;BMP280;71899;51.992;8.648;2023-07-31T04:21:00;99503.59;;;16.02
82297;BMP280;71899;51.992;8.648;2023-07-31T04:23:27;99494.66;;;16.12
82297;BMP280;71899;51.992;8.648;2023-07-31T04:25:52;99486.91;;;16.11
82297;BMP280;71899;51.992;8.648;2023-07-31T04:28:18;99504.81;;;16.07
82297;BMP280;71899;51.992;8.648;2023-07-31T04:30:43;99500.06;;;16.11
82297;BMP280;71899;51.992;8.648;2023-07-31T04:33:08;99501.97;;;16.18
82297;BMP280;71899;51.992;8.648;2023-07-31T04:35:33;99500.47;;;16.16
82297;BMP280;71899;51.992;8.648;2023-07-31T04:37:59;99500.06;;;16.11
82297;BMP280;71899;51.992;8.648;2023-07-31T04:40:24;99497.00;;;16.15
82297;BMP280;71899;51.992;8.648;2023-07-31T04:42:49;99493.75;;;16.21
82297;BMP280;71899;51.992;8.648;2023-07-31T04:45:15;99488.03;;;16.08
82297;BMP280;71899;51.992;8.648;2023-07-31T04:47:40;99486.28;;;16.17
82297;BMP280;71899;51.992;8.648;2023-07-31T04:50:06;99494.38;;;16.33
82297;BMP280;71899;51.992;8.648;2023-07-31T04:52:31;99498.28;;;16.29
82297;BMP280;71899;51.992;8.648;2023-07-31T04:54:56;99491.72;;;16.15
82297;BMP280;71899;51.992;8.648;2023-07-31T04:57:22;99498.38;;;16.19
82297;BMP280;71899;51.992;8.648;2023-07-31T04:59:47;99496.53;;;16.20
82297;BMP280;71899;51.992;8.648;2023-07-31T05:02:12;99494.97;;;16.45
82297;BMP280;71899;51.992;8.648;2023-07-31T05:04:38;99495.25;;;16.24
82297;BMP280;71899;51.992;8.648;2023-07-31T05:07:04;99494.16;;;16.44
82297;BMP280;71899;51.992;8.648;2023-07-31T05:09:29;99491.59;;;16.34
82297;BMP280;71899;51.992;8.648;2023-07-31T05:11:54;99491.47;;;16.09
82297;BMP280;71899;51.992;8.648;2023-07-31T05:14:20;99503.47;;;16.21
82297;BMP280;71899;51.992;8.648;2023-07-31T05:16:45;99494.03;;;16.01
82297;BMP280;71899;51.992;8.648;2023-07-31T05:19:10;99500.81;;;16.03
82297;BMP280;71899;51.992;8.648;2023-07-31T05:21:36;99489.22;;;16.14
82297;BMP280;71899;51.992;8.648;2023-07-31T05:24:01;99495.63;;;16.11
82297;BMP280;71899;51.992;8.648;2023-07-31T05:26:26;99486.25;;;15.99
82297;BMP280;71899;51.992;8.648;2023-07-31T05:28:52;99476.66;;;16.08
82297;BMP280;71899;51.992;8.648;2023-07-31T05:31:17;99483.34;;;16.20
82297;BMP280;71899;51.992;8.648;2023-07-31T05:33:42;99484.66;;;16.33
82297;BMP280;71899;51.992;8.648;2023-07-31T05:36:08;99488.50;;;16.21
82297;BMP280;71899;51.992;8.648;2023-07-31T05:38:33;99494.81;;;16.28
82297;BMP280;71899;51.992;8.648;2023-07-31T05:40:58;99488.06;;;16.44
82297;BMP280;71899;51.992;8.648;2023-07-31T05:43:23;99495.44;;;16.40
82297;BMP280;71899;51.992;8.648;2023-07-31T05:45:49;99490.53;;;16.27
82297;BMP280;71899;51.992;8.648;2023-07-31T05:48:14;99491.06;;;16.49
82297;BMP280;71899;51.992;8.648;2023-07-31T05:50:39;99492.72;;;16.32
82297;BMP280;71899;51.992;8.648;2023-07-31T05:53:05;99485.56;;;16.42
82297;BMP280;71899;51.992;8.648;2023-07-31T05:55:31;99480.72;;;16.37
82297;BMP280;71899;51.992;8.648;2023-07-31T05:57:57;99489.41;;;16.30
82297;BMP280;71899;51.992;8.648;2023-07-31T06:00:22;99489.06;;;16.60
82297;BMP280;71899;51.992;8.648;2023-07-31T06:02:48;99498.25;;;16.56
82297;BMP280;71899;51.992;8.648;2023-07-31T06:05:13;99479.56;;;16.67
82297;BMP280;71899;51.992;8.648;2023-07-31T06:07:39;99480.38;;;16.50
82297;BMP280;71899;51.992;8.648;2023-07-31T06:10:04;99476.88;;;16.85
82297;BMP280;71899;51.992;8.648;2023-07-31T06:12:31;99483.66;;;16.52
82297;BMP280;71899;51.992;8.648;2023-07-31T06:14:57;99486.72;;;16.75
82297;BMP280;71899;51.992;8.648;2023-07-31T06:17:22;99477.41;;;16.89
82297;BMP280;71899;51.992;8.648;2023-07-31T06:19:47;99477.44;;;17.14
82297;BMP280;71899;51.992;8.648;2023-07-31T06:22:13;99472.97;;;16.54
82297;BMP280;71899;51.992;8.648;2023-07-31T06:24:38;99476.69;;;16.61
82297;BMP280;71899;51.992;8.648;2023-07-31T06:27:04;99472.78;;;16.65
82297;BMP280;71899;51.992;8.648;2023-07-31T06:29:30;99477.75;;;16.68
82297;BMP280;71899;51.992;8.648;2023-07-31T06:31:55;99470.72;;;16.76
82297;BMP280;71899;51.992;8.648;2023-07-31T06:34:21;99472.50;;;16.94
82297;BMP280;71899;51.992;8.648;2023-07-31T06:36:46;99475.53;;;16.81
82297;BMP280;71899;51.992;8.648;2023-07-31T06:39:11;99472.88;;;16.81
82297;BMP280;71899;51.992;8.648;2023-07-31T06:41:38;99471.84;;;16.74
82297;BMP280;71899;51.992;8.648;2023-07-31T06:44:08;99465.59;;;16.75
82297;BMP280;71899;51.992;8.648;2023-07-31T06:46:33;99453.47;;;16.64
82297;BMP280;71899;51.992;8.648;2023-07-31T06:48:59;99459.50;;;16.57
82297;BMP280;71899;51.992;8.648;2023-07-31T06:51:24;99438.28;;;16.66
82297;BMP280;71899;51.992;8.648;2023-07-31T06:53:49;99443.22;;;16.61
82297;BMP280;71899;51.992;8.648;2023-07-31T06:56:15;99447.81;;;16.59
82297;BMP280;71899;51.992;8.648;2023-07-31T06:58:40;99450.81;;;16.82
82297;BMP280;71899;51.992;8.648;2023-07-31T07:01:05;99447.41;;;16.90
82297;BMP280;71899;51.992;8.648;2023-07-31T07:03:30;99450.91;;;16.98
82297;BMP280;71899;51.992;8.648;2023-07-31T07:05:56;99448.78;;;17.02
82297;BMP280;71899;51.992;8.648;2023-07-31T07:08:21;99447.22;;;17.17
82297;BMP280;71899;51.992;8.648;2023-07-31T07:10:47;99452.41;;;17.01
82297;BMP280;71899;51.992;8.648;2023-07-31T07:13:13;99446.31;;;17.00
82297;BMP280;71899;51.992;8.648;2023-07-31T07:15:38;99439.53;;;16.98
82297;BMP280;71899;51.992;8.648;2023-07-31T07:18:03;99444.78;;;17.23
82297;BMP280;71899;51.992;8.648;2023-07-31T07:20:29;99448.38;;;17.14
82297;BMP280;71899;51.992;8.648;2023-07-31T07:22:54;99458.88;;;17.32
82297;BMP280;71899;51.992;8.648;2023-07-31T07:25:19;99460.88;;;17.38
82297;BMP280;71899;51.992;8.648;2023-07-31T07:27:45;99459.19;;;17.63
82297;BMP280;71899;51.992;8.648;2023-07-31T07:30:10;99475.16;;;17.53
82297;BMP280;71899;51.992;8.648;2023-07-31T07:32:35;99468.81;;;17.64
82297;BMP280;71899;51.992;8.648;2023-07-31T07:35:01;99462.66;;;18.05
82297;BMP280;71899;51.992;8.648;2023-07-31T07:37:26;99459.31;;;17.87
82297;BMP280;71899;51.992;8.648;2023-07-31T07:39:51;99455.13;;;17.68
82297;BMP280;71899;51.992;8.648;2023-07-31T07:42:17;99459.56;;;17.68
82297;BMP280;71899;51.992;8.648;2023-07-31T07:44:43;99461.50;;;17.32
82297;BMP280;71899;51.992;8.648;2023-07-31T07:47:08;99462.25;;;16.91
82297;BMP280;71899;51.992;8.648;2023-07-31T07:49:34;99436.50;;;16.93
82297;BMP280;71899;51.992;8.648;2023-07-31T07:52:01;99423.63;;;16.90
82297;BMP280;71899;51.992;8.648;2023-07-31T07:54:26;99426.53;;;16.78
82297;BMP280;71899;51.992;8.648;2023-07-31T07:56:51;99432.84;;;16.85
82297;BMP280;71899;51.992;8.648;2023-07-31T07:59:17;99424.13;;;16.50
82297;BMP280;71899;51.992;8.648;2023-07-31T08:01:42;99423.28;;;16.67
82297;BMP280;71899;51.992;8.648;2023-07-31T08:04:08;99407.84;;;16.54
82297;BMP280;71899;51.992;8.648;2023-07-31T08:06:33;99399.47;;;16.76
82297;BMP280;71899;51.992;8.648;2023-07-31T08:08:59;99398.19;;;16.63
82297;BMP280;71899;51.992;8.648;2023-07-31T08:11:24;99407.84;;;16.72
82297;BMP280;71899;51.992;8.648;2023-07-31T08:13:50;99412.88;;;16.83
82297;BMP280;71899;51.992;8.648;2023-07-31T08:16:15;99409.59;;;16.89
82297;BMP280;71899;51.992;8.648;2023-07-31T08:18:40;99418.41;;;17.31
82297;BMP280;71899;51.992;8.648;2023-07-31T08:21:07;99413.50;;;17.45
82297;BMP280;71899;51.992;8.648;2023-07-31T08:23:32;99402.53;;;17.57
82297;BMP280;71899;51.992;8.648;2023-07-31T08:25:58;99406.28;;;17.47
82297;BMP280;71899;51.992;8.648;2023-07-31T08:28:23;99392.94;;;17.56
82297;BMP280;71899;51.992;8.648;2023-07-31T08:30:48;99393.84;;;17.81
82297;BMP280;71899;51.992;8.648;2023-07-31T08:33:15;99398.19;;;18.06
82297;BMP280;71899;51.992;8.648;2023-07-31T08:35:41;99392.06;;;17.90
82297;BMP280;71899;51.992;8.648;2023-07-31T08:38:06;99386.59;;;17.83
82297;BMP280;71899;51.992;8.648;2023-07-31T08:40:31;99380.41;;;17.66
82297;BMP280;71899;51.992;8.648;2023-07-31T08:42:56;99383.06;;;17.66
82297;BMP280;71899;51.992;8.648;2023-07-31T08:45:27;99366.75;;;17.79
82297;BMP280;71899;51.992;8.648;2023-07-31T08:47:52;99377.84;;;17.91
82297;BMP280;71899;51.992;8.648;2023-07-31T08:50:20;99377.19;;;17.97
82297;BMP280;71899;51.992;8.648;2023-07-31T08:52:46;99377.50;;;18.02
82297;BMP280;71899;51.992;8.648;2023-07-31T08:55:12;99377.56;;;18.26
82297;BMP280;71899;51.992;8.648;2023-07-31T08:57:38;99373.91;;;18.27
82297;BMP280;71899;51.992;8.648;2023-07-31T09:00:04;99380.19;;;18.18
82297;BMP280;71899;51.992;8.648;2023-07-31T09:02:55;99379.34;;;18.09
82297;BMP280;71899;51.992;8.648;2023-07-31T09:05:21;99382.16;;;18.00
82297;BMP280;71899;51.992;8.648;2023-07-31T09:07:49;99388.75;;;17.96
82297;BMP280;71899;51.992;8.648;2023-07-31T09:10:14;99390.56;;;17.87
82297;BMP280;71899;51.992;8.648;2023-07-31T09:12:40;99391.69;;;17.84
82297;BMP280;71899;51.992;8.648;2023-07-31T09:15:06;99405.38;;;17.64
82297;BMP280;71899;51.992;8.648;2023-07-31T09:17:35;99391.41;;;17.46
82297;BMP280;71899;51.992;8.648;2023-07-31T09:20:18;99381.00;;;18.02
82297;BMP280;71899;51.992;8.648;2023-07-31T09:22:45;99379.50;;;17.92
82297;BMP280;71899;51.992;8.648;2023-07-31T09:27:45;99383.25;;;17.73
82297;BMP280;71899;51.992;8.648;2023-07-31T09:30:11;99379.22;;;18.19
82297;BMP280;71899;51.992;8.648;2023-07-31T09:32:36;99378.84;;;18.30
82297;BMP280;71899;51.992;8.648;2023-07-31T09:35:22;99367.47;;;18.29
82297;BMP280;71899;51.992;8.648;2023-07-31T09:37:49;99362.50;;;18.43
82297;BMP280;71899;51.992;8.648;2023-07-31T09:40:28;99366.75;;;18.92
82297;BMP280;71899;51.992;8.648;2023-07-31T09:42:59;99360.03;;;18.25
82297;BMP280;71899;51.992;8.648;2023-07-31T09:45:24;99364.31;;;18.50
82297;BMP280;71899;51.992;8.648;2023-07-31T09:47:50;99363.97;;;18.45
82297;BMP280;71899;51.992;8.648;2023-07-31T09:50:16;99362.00;;;18.07
82297;BMP280;71899;51.992;8.648;2023-07-31T09:52:42;99352.25;;;18.31
82297;BMP280;71899;51.992;8.648;2023-07-31T09:55:08;99356.06;;;18.61
82297;BMP280;71899;51.992;8.648;2023-07-31T09:57:36;99360.66;;;18.27
82297;BMP280;71899;51.992;8.648;2023-07-31T10:00:03;99358.84;;;18.27
82297;BMP280;71899;51.992;8.648;2023-07-31T10:02:37;99356.22;;;18.60
82297;BMP280;71899;51.992;8.648;2023-07-31T10:05:04;99349.59;;;18.31
82297;BMP280;71899;51.992;8.648;2023-07-31T10:07:31;99346.25;;;18.70
82297;BMP280;71899;51.992;8.648;2023-07-31T10:09:59;99341.31;;;18.26
82297;BMP280;71899;51.992;8.648;2023-07-31T10:12:27;99352.19;;;18.88
82297;BMP280;71899;51.992;8.648;2023-07-31T10:14:56;99339.16;;;18.78
82297;BMP280;71899;51.992;8.648;2023-07-31T10:17:22;99329.19;;;18.80
82297;BMP280;71899;51.992;8.648;2023-07-31T10:19:49;99345.81;;;19.13
82297;BMP280;71899;51.992;8.648;2023-07-31T10:22:15;99339.91;;;19.03
82297;BMP280;71899;51.992;8.648;2023-07-31T10:24:45;99342.44;;;18.89
82297;BMP280;71899;51.992;8.648;2023-07-31T10:27:10;99345.09;;;18.48
82297;BMP280;71899;51.992;8.648;2023-07-31T10:29:37;99340.69;;;18.41
82297;BMP280;71899;51.992;8.648;2023-07-31T10:32:04;99334.19;;;17.95
82297;BMP280;71899;51.992;8.648;2023-07-31T10:34:33;99346.47;;;18.44
82297;BMP280;71899;51.992;8.648;2023-07-31T10:40:03;99335.53;;;18.47
82297;BMP280;71899;51.992;8.648;2023-07-31T10:42:36;99335.53;;;18.63
82297;BMP280;71899;51.992;8.648;2023-07-31T10:45:08;99325.78;;;18.23
82297;BMP280;71899;51.992;8.648;2023-07-31T10:47:45;99324.63;;;18.58
82297;BMP280;71899;51.992;8.648;2023-07-31T10:50:19;99325.78;;;18.56
82297;BMP280;71899;51.992;8.648;2023-07-31T10:52:53;99319.47;;;18.49
82297;BMP280;71899;51.992;8.648;2023-07-31T10:55:38;99327.75;;;18.38
82297;BMP280;71899;51.992;8.648;2023-07-31T10:58:14;99320.66;;;18.46
82297;BMP280;71899;51.992;8.648;2023-07-31T11:00:44;99329.25;;;17.92
82297;BMP280;71899;51.992;8.648;2023-07-31T11:03:14;99333.41;;;17.94
82297;BMP280;71899;51.992;8.648;2023-07-31T11:06:01;99323.47;;;18.12
82297;BMP280;71899;51.992;8.648;2023-07-31T11:08:32;99320.00;;;17.96
82297;BMP280;71899;51.992;8.648;2023-07-31T11:13:28;99320.97;;;18.59
82297;BMP280;71899;51.992;8.648;2023-07-31T11:15:54;99319.34;;;18.58
82297;BMP280;71899;51.992;8.648;2023-07-31T11:18:19;99306.59;;;18.54
82297;BMP280;71899;51.992;8.648;2023-07-31T11:20:44;99314.47;;;18.86
82297;BMP280;71899;51.992;8.648;2023-07-31T11:23:10;99314.84;;;18.59
82297;BMP280;71899;51.992;8.648;2023-07-31T11:25:37;99324.44;;;18.60
82297;BMP280;71899;51.992;8.648;2023-07-31T11:28:08;99313.72;;;18.21
82297;BMP280;71899;51.992;8.648;2023-07-31T11:30:34;99320.00;;;18.60
82297;BMP280;71899;51.992;8.648;2023-07-31T11:33:05;99316.84;;;18.32
82297;BMP280;71899;51.992;8.648;2023-07-31T11:35:32;99322.16;;;18.32
82297;BMP280;71899;51.992;8.648;2023-07-31T11:37:57;99314.53;;;18.54
82297;BMP280;71899;51.992;8.648;2023-07-31T11:40:23;99317.34;;;18.52
82297;BMP280;71899;51.992;8.648;2023-07-31T11:42:54;99303.09;;;18.45
82297;BMP280;71899;51.992;8.648;2023-07-31T11:45:19;99310.06;;;18.30
82297;BMP280;71899;51.992;8.648;2023-07-31T11:47:45;99309.06;;;18.47
82297;BMP280;71899;51.992;8.648;2023-07-31T11:50:11;99312.84;;;18.45
82297;BMP280;71899;51.992;8.648;2023-07-31T11:52:40;99294.47;;;18.75
82297;BMP280;71899;51.992;8.648;2023-07-31T11:55:08;99294.34;;;18.61
82297;BMP280;71899;51.992;8.648;2023-07-31T11:57:36;99294.84;;;18.64
82297;BMP280;71899;51.992;8.648;2023-07-31T12:00:02;99291.72;;;19.08
82297;BMP280;71899;51.992;8.648;2023-07-31T12:02:29;99305.19;;;18.90
82297;BMP280;71899;51.992;8.648;2023-07-31T12:04:55;99295.72;;;18.96
82297;BMP280;71899;51.992;8.648;2023-07-31T12:07:20;99291.03;;;18.59
82297;BMP280;71899;51.992;8.648;2023-07-31T12:09:55;99291.38;;;18.48
82297;BMP280;71899;51.992;8.648;2023-07-31T12:12:21;99292.34;;;18.63
82297;BMP280;71899;51.992;8.648;2023-07-31T12:14:47;99286.69;;;18.82
82297;BMP280;71899;51.992;8.648;2023-07-31T12:17:13;99286.56;;;18.67
82297;BMP280;71899;51.992;8.648;2023-07-31T12:19:39;99290.94;;;18.91
82297;BMP280;71899;51.992;8.648;2023-07-31T12:22:12;99280.91;;;18.78
82297;BMP280;71899;51.992;8.648;2023-07-31T12:24:39;99283.63;;;19.01
82297;BMP280;71899;51.992;8.648;2023-07-31T12:27:14;99283.38;;;19.19
82297;BMP280;71899;51.992;8.648;2023-07-31T12:29:41;99284.44;;;19.02
82297;BMP280;71899;51.992;8.648;2023-07-31T12:32:23;99263.06;;;18.48
82297;BMP280;71899;51.992;8.648;2023-07-31T12:34:50;99285.72;;;18.67
82297;BMP280;71899;51.992;8.648;2023-07-31T12:37:15;99275.28;;;18.73
82297;BMP280;71899;51.992;8.648;2023-07-31T12:39:41;99281.53;;;18.80
82297;BMP280;71899;51.992;8.648;2023-07-31T12:42:06;99277.41;;;18.78
82297;BMP280;71899;51.992;8.648;2023-07-31T12:44:31;99274.66;;;19.02
82297;BMP280;71899;51.992;8.648;2023-07-31T12:46:57;99283.56;;;18.70
82297;BMP280;71899;51.992;8.648;2023-07-31T12:49:22;99264.44;;;18.44
82297;BMP280;71899;51.992;8.648;2023-07-31T12:51:47;99264.44;;;18.36
82297;BMP280;71899;51.992;8.648;2023-07-31T12:54:13;99280.28;;;18.60
82297;BMP280;71899;51.992;8.648;2023-07-31T12:56:38;99275.50;;;18.40
82297;BMP280;71899;51.992;8.648;2023-07-31T12:59:03;99273.72;;;18.08
82297;BMP280;71899;51.992;8.648;2023-07-31T13:01:28;99274.34;;;18.34
82297;BMP280;71899;51.992;8.648;2023-07-31T13:03:54;99286.47;;;17.96
82297;BMP280;71899;51.992;8.648;2023-07-31T13:06:19;99288.09;;;17.89
82297;BMP280;71899;51.992;8.648;2023-07-31T13:08:44;99264.63;;;18.10
82297;BMP280;71899;51.992;8.648;2023-07-31T13:11:09;99283.31;;;17.93
82297;BMP280;71899;51.992;8.648;2023-07-31T13:13:35;99279.03;;;18.00
82297;BMP280;71899;51.992;8.648;2023-07-31T13:16:00;99276.00;;;18.43
82297;BMP280;71899;51.992;8.648;2023-07-31T13:18:25;99269.53;;;18.62
82297;BMP280;71899;51.992;8.648;2023-07-31T13:20:51;99260.78;;;18.53
82297;BMP280;71899;51.992;8.648;2023-07-31T13:23:16;99261.31;;;19.57
82297;BMP280;71899;51.992;8.648;2023-07-31T13:25:41;99258.00;;;19.55
82297;BMP280;71899;51.992;8.648;2023-07-31T13:28:07;99250.22;;;19.54
82297;BMP280;71899;51.992;8.648;2023-07-31T13:30:32;99243.34;;;19.67
82297;BMP280;71899;51.992;8.648;2023-07-31T13:32:58;99244.94;;;19.54
82297;BMP280;71899;51.992;8.648;2023-07-31T13:35:23;99243.97;;;19.47
82297;BMP280;71899;51.992;8.648;2023-07-31T13:37:48;99242.41;;;19.98
82297;BMP280;71899;51.992;8.648;2023-07-31T13:40:14;99235.38;;;20.71
82297;BMP280;71899;51.992;8.648;2023-07-31T13:42:39;99244.28;;;20.12
82297;BMP280;71899;51.992;8.648;2023-07-31T13:45:05;99237.72;;;20.22
82297;BMP280;71899;51.992;8.648;2023-07-31T13:47:30;99220.28;;;20.72
82297;BMP280;71899;51.992;8.648;2023-07-31T13:49:56;99223.63;;;20.81
82297;BMP280;71899;51.992;8.648;2023-07-31T13:52:21;99214.81;;;20.95
82297;BMP280;71899;51.992;8.648;2023-07-31T13:54:46;99214.84;;;20.65
82297;BMP280;71899;51.992;8.648;2023-07-31T13:57:12;99210.59;;;20.12
82297;BMP280;71899;51.992;8.648;2023-07-31T13:59:37;99216.16;;;20.03
82297;BMP280;71899;51.992;8.648;2023-07-31T14:02:02;99207.97;;;20.27
82297;BMP280;71899;51.992;8.648;2023-07-31T14:04:28;99211.53;;;20.19
82297;BMP280;71899;51.992;8.648;2023-07-31T14:06:55;99196.00;;;20.31
82297;BMP280;71899;51.992;8.648;2023-07-31T14:09:21;99192.59;;;20.66
82297;BMP280;71899;51.992;8.648;2023-07-31T14:11:46;99194.28;;;21.03
82297;BMP280;71899;51.992;8.648;2023-07-31T14:14:11;99174.09;;;21.09
82297;BMP280;71899;51.992;8.648;2023-07-31T14:16:37;99186.31;;;21.03
82297;BMP280;71899;51.992;8.648;2023-07-31T14:19:03;99185.63;;;20.80